sensor_id;sensor_type;location;lat;lon;timestamp;P1;durP1;ratioP1;P2;durP2;ratioP2
25687;SDS011;17407;51.120;3.702;2022-07-10T00:00:27;61.80;;;26.15;;
25687;SDS011;17407;51.120;3.702;2022-07-10T00:02:55;74.35;;;31.70;;
25687;SDS011;17407;51.120;3.702;2022-07-10T00:05:21;67.25;;;25.98;;
25687;SDS011;17407;51.120;3.702;2022-07-10T00:07:48;71.90;;;27.55;;
25687;SDS011;17407;51.120;3.702;2022-07-10T00:10:14;78.15;;;28.17;;
25687;SDS011;17407;51.120;3.702;2022-07-10T00:12:40;63.75;;;22.33;;
25687;SDS011;17407;51.120;3.702;2022-07-10T00:15:06;66.00;;;25.02;;
25687;SDS011;17407;51.120;3.702;2022-07-10T00:17:33;85.05;;;33.15;;
25687;SDS011;17407;51.120;3.702;2022-07-10T00:19:59;118.00;;;43.38;;
25687;SDS011;17407;51.120;3.702;2022-07-10T00:22:24;104.43;;;36.45;;
25687;SDS011;17407;51.120;3.702;2022-07-10T00:24:50;78.22;;;32.97;;
25687;SDS011;17407;51.120;3.702;2022-07-10T00:27:16;92.30;;;32.90;;
25687;SDS011;17407;51.120;3.702;2022-07-10T00:29:42;78.95;;;30.65;;
25687;SDS011;17407;51.120;3.702;2022-07-10T00:32:08;158.70;;;48.63;;
25687;SDS011;17407;51.120;3.702;2022-07-10T00:34:34;143.30;;;46.55;;
25687;SDS011;17407;51.120;3.702;2022-07-10T00:37:00;140.13;;;42.75;;
25687;SDS011;17407;51.120;3.702;2022-07-10T00:39:26;158.93;;;46.42;;
25687;SDS011;17407;51.120;3.702;2022-07-10T00:41:52;245.80;;;68.88;;
25687;SDS011;17407;51.120;3.702;2022-07-10T00:44:17;240.98;;;70.15;;
25687;SDS011;17407;51.120;3.702;2022-07-10T00:46:43;106.30;;;37.05;;
25687;SDS011;17407;51.120;3.702;2022-07-10T00:49:09;100.80;;;31.92;;
25687;SDS011;17407;51.120;3.702;2022-07-10T00:51:36;62.95;;;21.13;;
25687;SDS011;17407;51.120;3.702;2022-07-10T00:54:02;87.07;;;29.50;;
25687;SDS011;17407;51.120;3.702;2022-07-10T00:56:29;100.60;;;34.38;;
25687;SDS011;17407;51.120;3.702;2022-07-10T00:58:55;99.97;;;35.97;;
25687;SDS011;17407;51.120;3.702;2022-07-10T01:01:22;117.30;;;36.65;;
25687;SDS011;17407;51.120;3.702;2022-07-10T01:03:48;152.98;;;47.88;;
25687;SDS011;17407;51.120;3.702;2022-07-10T01:06:14;135.63;;;46.40;;
25687;SDS011;17407;51.120;3.702;2022-07-10T01:08:40;165.82;;;52.05;;
25687;SDS011;17407;51.120;3.702;2022-07-10T01:11:07;89.05;;;34.10;;
25687;SDS011;17407;51.120;3.702;2022-07-10T01:13:33;54.08;;;20.00;;
25687;SDS011;17407;51.120;3.702;2022-07-10T01:16:02;47.53;;;18.55;;
25687;SDS011;17407;51.120;3.702;2022-07-10T01:18:28;57.05;;;21.23;;
25687;SDS011;17407;51.120;3.702;2022-07-10T01:20:57;56.88;;;20.17;;
25687;SDS011;17407;51.120;3.702;2022-07-10T01:23:23;59.08;;;20.98;;
25687;SDS011;17407;51.120;3.702;2022-07-10T01:25:49;48.53;;;19.85;;
25687;SDS011;17407;51.120;3.702;2022-07-10T01:28:15;53.03;;;19.00;;
25687;SDS011;17407;51.120;3.702;2022-07-10T01:30:42;45.80;;;18.00;;
25687;SDS011;17407;51.120;3.702;2022-07-10T01:33:08;42.42;;;17.13;;
25687;SDS011;17407;51.120;3.702;2022-07-10T01:35:33;39.85;;;14.93;;
25687;SDS011;17407;51.120;3.702;2022-07-10T01:37:59;43.10;;;16.52;;
25687;SDS011;17407;51.120;3.702;2022-07-10T01:40:25;43.38;;;17.60;;
25687;SDS011;17407;51.120;3.702;2022-07-10T01:42:50;41.30;;;16.55;;
25687;SDS011;17407;51.120;3.702;2022-07-10T01:45:16;63.13;;;24.13;;
25687;SDS011;17407;51.120;3.702;2022-07-10T01:47:45;92.75;;;30.27;;
25687;SDS011;17407;51.120;3.702;2022-07-10T01:50:11;110.65;;;38.78;;
25687;SDS011;17407;51.120;3.702;2022-07-10T01:52:36;189.38;;;59.08;;
25687;SDS011;17407;51.120;3.702;2022-07-10T01:55:03;123.03;;;42.38;;
25687;SDS011;17407;51.120;3.702;2022-07-10T01:57:29;87.20;;;29.65;;
25687;SDS011;17407;51.120;3.702;2022-07-10T01:59:55;56.05;;;22.45;;
25687;SDS011;17407;51.120;3.702;2022-07-10T02:02:20;48.50;;;18.25;;
25687;SDS011;17407;51.120;3.702;2022-07-10T02:04:46;39.70;;;16.35;;
25687;SDS011;17407;51.120;3.702;2022-07-10T02:07:21;39.55;;;16.67;;
25687;SDS011;17407;51.120;3.702;2022-07-10T02:09:50;30.42;;;14.10;;
25687;SDS011;17407;51.120;3.702;2022-07-10T02:12:16;20.50;;;10.77;;
25687;SDS011;17407;51.120;3.702;2022-07-10T02:14:41;40.42;;;14.93;;
25687;SDS011;17407;51.120;3.702;2022-07-10T02:17:07;33.15;;;13.52;;
25687;SDS011;17407;51.120;3.702;2022-07-10T02:19:33;50.35;;;19.63;;
25687;SDS011;17407;51.120;3.702;2022-07-10T02:21:59;115.53;;;37.10;;
25687;SDS011;17407;51.120;3.702;2022-07-10T02:24:26;132.82;;;38.58;;
25687;SDS011;17407;51.120;3.702;2022-07-10T02:26:51;88.97;;;32.45;;
25687;SDS011;17407;51.120;3.702;2022-07-10T02:29:17;95.57;;;31.58;;
25687;SDS011;17407;51.120;3.702;2022-07-10T02:31:43;85.35;;;27.88;;
25687;SDS011;17407;51.120;3.702;2022-07-10T02:34:11;62.10;;;21.95;;
25687;SDS011;17407;51.120;3.702;2022-07-10T02:36:39;94.32;;;29.90;;
25687;SDS011;17407;51.120;3.702;2022-07-10T02:39:05;87.43;;;32.72;;
25687;SDS011;17407;51.120;3.702;2022-07-10T02:41:31;117.30;;;36.97;;
25687;SDS011;17407;51.120;3.702;2022-07-10T02:43:57;86.53;;;29.98;;
25687;SDS011;17407;51.120;3.702;2022-07-10T02:46:23;78.53;;;28.77;;
25687;SDS011;17407;51.120;3.702;2022-07-10T02:48:49;78.57;;;28.88;;
25687;SDS011;17407;51.120;3.702;2022-07-10T02:51:15;90.38;;;30.30;;
25687;SDS011;17407;51.120;3.702;2022-07-10T02:53:41;70.88;;;24.90;;
25687;SDS011;17407;51.120;3.702;2022-07-10T02:56:06;40.88;;;16.70;;
25687;SDS011;17407;51.120;3.702;2022-07-10T02:58:32;25.90;;;13.13;;
25687;SDS011;17407;51.120;3.702;2022-07-10T03:00:58;25.88;;;12.02;;
25687;SDS011;17407;51.120;3.702;2022-07-10T03:03:24;20.45;;;9.70;;
25687;SDS011;17407;51.120;3.702;2022-07-10T03:05:50;16.95;;;9.23;;
25687;SDS011;17407;51.120;3.702;2022-07-10T03:08:16;21.17;;;10.43;;
25687;SDS011;17407;51.120;3.702;2022-07-10T03:10:41;29.15;;;10.88;;
25687;SDS011;17407;51.120;3.702;2022-07-10T03:13:07;20.63;;;10.20;;
25687;SDS011;17407;51.120;3.702;2022-07-10T03:15:33;18.42;;;8.40;;
25687;SDS011;17407;51.120;3.702;2022-07-10T03:17:58;14.63;;;9.05;;
25687;SDS011;17407;51.120;3.702;2022-07-10T03:20:24;17.90;;;7.97;;
25687;SDS011;17407;51.120;3.702;2022-07-10T03:22:50;16.00;;;7.72;;
25687;SDS011;17407;51.120;3.702;2022-07-10T03:25:15;15.20;;;7.15;;
25687;SDS011;17407;51.120;3.702;2022-07-10T03:27:41;19.88;;;8.98;;
25687;SDS011;17407;51.120;3.702;2022-07-10T03:30:07;20.98;;;10.25;;
25687;SDS011;17407;51.120;3.702;2022-07-10T03:32:33;30.42;;;12.52;;
25687;SDS011;17407;51.120;3.702;2022-07-10T03:34:59;14.70;;;8.82;;
25687;SDS011;17407;51.120;3.702;2022-07-10T03:37:25;13.77;;;7.75;;
25687;SDS011;17407;51.120;3.702;2022-07-10T03:39:51;14.45;;;7.97;;
25687;SDS011;17407;51.120;3.702;2022-07-10T03:42:17;37.50;;;13.93;;
25687;SDS011;17407;51.120;3.702;2022-07-10T03:44:43;41.90;;;17.30;;
25687;SDS011;17407;51.120;3.702;2022-07-10T03:47:08;55.78;;;17.70;;
25687;SDS011;17407;51.120;3.702;2022-07-10T03:49:34;41.72;;;14.25;;
25687;SDS011;17407;51.120;3.702;2022-07-10T03:52:00;28.67;;;12.02;;
25687;SDS011;17407;51.120;3.702;2022-07-10T03:54:27;24.08;;;11.73;;
25687;SDS011;17407;51.120;3.702;2022-07-10T03:56:54;19.70;;;8.40;;
25687;SDS011;17407;51.120;3.702;2022-07-10T03:59:39;18.23;;;8.63;;
25687;SDS011;17407;51.120;3.702;2022-07-10T04:02:05;16.75;;;8.23;;
25687;SDS011;17407;51.120;3.702;2022-07-10T04:04:31;22.98;;;9.73;;
25687;SDS011;17407;51.120;3.702;2022-07-10T04:06:57;29.08;;;11.52;;
25687;SDS011;17407;51.120;3.702;2022-07-10T04:09:23;73.70;;;23.67;;
25687;SDS011;17407;51.120;3.702;2022-07-10T04:11:49;60.47;;;22.60;;
25687;SDS011;17407;51.120;3.702;2022-07-10T04:14:15;42.33;;;17.23;;
25687;SDS011;17407;51.120;3.702;2022-07-10T04:16:41;34.50;;;13.90;;
25687;SDS011;17407;51.120;3.702;2022-07-10T04:19:07;27.48;;;10.77;;
25687;SDS011;17407;51.120;3.702;2022-07-10T04:21:32;24.98;;;10.23;;
25687;SDS011;17407;51.120;3.702;2022-07-10T04:23:58;19.50;;;9.85;;
25687;SDS011;17407;51.120;3.702;2022-07-10T04:26:24;18.85;;;8.00;;
25687;SDS011;17407;51.120;3.702;2022-07-10T04:28:49;12.50;;;7.90;;
25687;SDS011;17407;51.120;3.702;2022-07-10T04:31:15;16.40;;;7.50;;
25687;SDS011;17407;51.120;3.702;2022-07-10T04:33:41;23.33;;;9.63;;
25687;SDS011;17407;51.120;3.702;2022-07-10T04:36:06;22.75;;;10.57;;
25687;SDS011;17407;51.120;3.702;2022-07-10T04:38:32;28.23;;;11.45;;
25687;SDS011;17407;51.120;3.702;2022-07-10T04:40:58;24.25;;;11.07;;
25687;SDS011;17407;51.120;3.702;2022-07-10T04:43:24;23.60;;;9.52;;
25687;SDS011;17407;51.120;3.702;2022-07-10T04:45:49;19.50;;;9.98;;
25687;SDS011;17407;51.120;3.702;2022-07-10T04:48:15;16.88;;;8.77;;
25687;SDS011;17407;51.120;3.702;2022-07-10T04:50:41;19.27;;;9.07;;
25687;SDS011;17407;51.120;3.702;2022-07-10T04:53:06;22.73;;;8.88;;
25687;SDS011;17407;51.120;3.702;2022-07-10T04:55:32;16.30;;;8.65;;
25687;SDS011;17407;51.120;3.702;2022-07-10T04:57:58;19.95;;;8.75;;
25687;SDS011;17407;51.120;3.702;2022-07-10T05:00:24;17.10;;;8.70;;
25687;SDS011;17407;51.120;3.702;2022-07-10T05:02:49;12.38;;;8.32;;
25687;SDS011;17407;51.120;3.702;2022-07-10T05:05:15;15.15;;;7.55;;
25687;SDS011;17407;51.120;3.702;2022-07-10T05:07:41;13.43;;;7.20;;
25687;SDS011;17407;51.120;3.702;2022-07-10T05:10:06;12.05;;;7.20;;
25687;SDS011;17407;51.120;3.702;2022-07-10T05:12:32;13.70;;;7.47;;
25687;SDS011;17407;51.120;3.702;2022-07-10T05:14:58;11.93;;;6.78;;
25687;SDS011;17407;51.120;3.702;2022-07-10T05:17:25;14.90;;;7.82;;
25687;SDS011;17407;51.120;3.702;2022-07-10T05:19:52;20.50;;;10.85;;
25687;SDS011;17407;51.120;3.702;2022-07-10T05:22:18;18.70;;;10.43;;
25687;SDS011;17407;51.120;3.702;2022-07-10T05:24:44;13.63;;;8.32;;
25687;SDS011;17407;51.120;3.702;2022-07-10T05:27:09;11.82;;;7.47;;
25687;SDS011;17407;51.120;3.702;2022-07-10T05:29:35;15.88;;;7.50;;
25687;SDS011;17407;51.120;3.702;2022-07-10T05:32:01;12.80;;;6.60;;
25687;SDS011;17407;51.120;3.702;2022-07-10T05:34:26;11.35;;;6.50;;
25687;SDS011;17407;51.120;3.702;2022-07-10T05:36:52;11.57;;;6.30;;
25687;SDS011;17407;51.120;3.702;2022-07-10T05:39:17;11.77;;;6.65;;
25687;SDS011;17407;51.120;3.702;2022-07-10T05:41:43;8.10;;;5.97;;
25687;SDS011;17407;51.120;3.702;2022-07-10T05:44:09;9.30;;;5.97;;
25687;SDS011;17407;51.120;3.702;2022-07-10T05:46:35;11.63;;;5.82;;
25687;SDS011;17407;51.120;3.702;2022-07-10T05:49:01;10.38;;;6.35;;
25687;SDS011;17407;51.120;3.702;2022-07-10T05:51:27;9.30;;;5.45;;
25687;SDS011;17407;51.120;3.702;2022-07-10T05:53:52;8.57;;;5.50;;
25687;SDS011;17407;51.120;3.702;2022-07-10T05:56:18;10.15;;;5.40;;
25687;SDS011;17407;51.120;3.702;2022-07-10T05:58:44;9.57;;;5.30;;
25687;SDS011;17407;51.120;3.702;2022-07-10T06:01:09;10.38;;;5.07;;
25687;SDS011;17407;51.120;3.702;2022-07-10T06:03:35;10.73;;;5.00;;
25687;SDS011;17407;51.120;3.702;2022-07-10T06:06:00;8.43;;;4.47;;
25687;SDS011;17407;51.120;3.702;2022-07-10T06:08:26;6.68;;;3.47;;
25687;SDS011;17407;51.120;3.702;2022-07-10T06:10:52;7.93;;;3.70;;
25687;SDS011;17407;51.120;3.702;2022-07-10T06:13:18;11.45;;;4.57;;
25687;SDS011;17407;51.120;3.702;2022-07-10T06:15:43;8.80;;;4.30;;
25687;SDS011;17407;51.120;3.702;2022-07-10T06:18:09;7.30;;;3.92;;
25687;SDS011;17407;51.120;3.702;2022-07-10T06:20:34;9.60;;;3.80;;
25687;SDS011;17407;51.120;3.702;2022-07-10T06:23:00;5.45;;;3.42;;
25687;SDS011;17407;51.120;3.702;2022-07-10T06:25:26;5.60;;;3.40;;
25687;SDS011;17407;51.120;3.702;2022-07-10T06:27:51;6.93;;;3.28;;
25687;SDS011;17407;51.120;3.702;2022-07-10T06:30:17;4.50;;;2.90;;
25687;SDS011;17407;51.120;3.702;2022-07-10T06:32:43;9.15;;;3.30;;
25687;SDS011;17407;51.120;3.702;2022-07-10T06:35:09;8.15;;;2.97;;
25687;SDS011;17407;51.120;3.702;2022-07-10T06:37:35;9.93;;;3.47;;
25687;SDS011;17407;51.120;3.702;2022-07-10T06:40:01;6.93;;;3.40;;
25687;SDS011;17407;51.120;3.702;2022-07-10T06:42:27;7.00;;;3.72;;
25687;SDS011;17407;51.120;3.702;2022-07-10T06:44:53;7.93;;;3.70;;
25687;SDS011;17407;51.120;3.702;2022-07-10T06:47:19;9.43;;;3.47;;
25687;SDS011;17407;51.120;3.702;2022-07-10T06:50:04;7.15;;;3.15;;
25687;SDS011;17407;51.120;3.702;2022-07-10T06:52:31;4.90;;;2.83;;
25687;SDS011;17407;51.120;3.702;2022-07-10T06:55:01;8.82;;;4.10;;
25687;SDS011;17407;51.120;3.702;2022-07-10T06:57:27;3.67;;;2.15;;
25687;SDS011;17407;51.120;3.702;2022-07-10T06:59:53;5.78;;;2.30;;
25687;SDS011;17407;51.120;3.702;2022-07-10T07:02:19;7.07;;;2.05;;
25687;SDS011;17407;51.120;3.702;2022-07-10T07:04:45;6.90;;;2.10;;
25687;SDS011;17407;51.120;3.702;2022-07-10T07:07:14;6.65;;;2.08;;
25687;SDS011;17407;51.120;3.702;2022-07-10T07:09:40;3.15;;;1.90;;
25687;SDS011;17407;51.120;3.702;2022-07-10T07:12:07;8.48;;;2.33;;
25687;SDS011;17407;51.120;3.702;2022-07-10T07:14:33;5.90;;;2.38;;
25687;SDS011;17407;51.120;3.702;2022-07-10T07:16:59;5.22;;;2.00;;
25687;SDS011;17407;51.120;3.702;2022-07-10T07:19:29;3.33;;;2.10;;
25687;SDS011;17407;51.120;3.702;2022-07-10T07:22:21;8.65;;;2.05;;
25687;SDS011;17407;51.120;3.702;2022-07-10T07:25:17;8.25;;;2.22;;
25687;SDS011;17407;51.120;3.702;2022-07-10T12:08:08;3.03;;;1.52;;
25687;SDS011;17407;51.120;3.702;2022-07-10T13:08:53;2.15;;;1.52;;
25687;SDS011;17407;51.120;3.702;2022-07-10T14:09:43;3.42;;;1.60;;
25687;SDS011;17407;51.120;3.702;2022-07-10T15:10:26;1.90;;;1.30;;
25687;SDS011;17407;51.120;3.702;2022-07-10T16:11:10;2.70;;;1.73;;
25687;SDS011;17407;51.120;3.702;2022-07-10T19:06:39;2.30;;;1.95;;
25687;SDS011;17407;51.120;3.702;2022-07-10T19:10:08;2.08;;;1.52;;
25687;SDS011;17407;51.120;3.702;2022-07-10T21:11:25;4.28;;;3.63;;
25687;SDS011;17407;51.120;3.702;2022-07-10T22:12:17;6.75;;;6.03;;
25687;SDS011;17407;51.120;3.702;2022-07-10T23:13:00;7.90;;;6.80;;
